createdAt,value
2019-04-11T00:00:38.147Z,101528.66
2019-04-11T00:03:11.396Z,101532.17
2019-04-11T00:05:45.330Z,101533.05
2019-04-11T00:08:19.595Z,101533.47
2019-04-11T00:10:51.353Z,101538.73
2019-04-11T00:13:25.833Z,101527.84
2019-04-11T00:15:57.635Z,101534.80
2019-04-11T00:18:30.360Z,101543.96
2019-04-11T00:21:02.075Z,101539.66
2019-04-11T00:23:34.799Z,101545.36
2019-04-11T00:26:08.421Z,101544.07
2019-04-11T00:28:40.168Z,101546.23
2019-04-11T00:31:13.101Z,101547.54
2019-04-11T00:33:46.648Z,101549.70
2019-04-11T00:36:20.023Z,101545.80
2019-04-11T00:38:53.081Z,101541.00
2019-04-11T00:41:26.045Z,101544.49
2019-04-11T00:43:58.677Z,101547.53
2019-04-11T00:46:32.058Z,101547.54
2019-04-11T00:49:06.113Z,101545.37
2019-04-11T00:51:38.255Z,101547.11
2019-04-11T00:54:11.188Z,101543.64
2019-04-11T00:56:45.216Z,101546.67
2019-04-11T00:59:18.338Z,101548.87
2019-04-11T01:01:51.504Z,101553.23
2019-04-11T01:04:25.461Z,101554.52
2019-04-11T01:06:58.663Z,101557.56
2019-04-11T01:09:30.882Z,101562.78
2019-04-11T01:12:04.657Z,101561.06
2019-04-11T01:14:38.639Z,101557.58
2019-04-11T01:17:12.738Z,101563.23
2019-04-11T01:19:46.878Z,101554.09
2019-04-11T01:22:20.154Z,101559.31
2019-04-11T01:24:53.188Z,101554.95
2019-04-11T01:27:27.792Z,101561.05
2019-04-11T01:29:59.935Z,101560.19
2019-04-11T01:32:33.086Z,101564.96
2019-04-11T01:35:06.876Z,101567.16
2019-04-11T01:37:40.152Z,101562.36
2019-04-11T01:40:13.782Z,101559.31
2019-04-11T01:42:45.658Z,101556.25
2019-04-11T01:45:19.146Z,101556.27
2019-04-11T01:47:53.267Z,101554.97
2019-04-11T01:50:27.772Z,101560.19
2019-04-11T01:53:00.475Z,101564.97
2019-04-11T01:55:34.875Z,101564.52
2019-04-11T01:58:06.721Z,101570.19
2019-04-11T02:00:42.052Z,101569.77
2019-04-11T02:03:23.693Z,101574.12
2019-04-11T02:05:55.592Z,101577.59
2019-04-11T02:08:29.346Z,101577.16
2019-04-11T02:11:01.342Z,101578.45
2019-04-11T02:13:34.394Z,101584.99
2019-04-11T02:16:06.126Z,101587.17
2019-04-11T02:18:39.418Z,101591.53
2019-04-11T02:21:13.623Z,101584.56
2019-04-11T02:23:55.269Z,101586.31
2019-04-11T02:26:29.864Z,101587.16
2019-04-11T02:29:03.452Z,101583.70
2019-04-11T02:31:36.782Z,101584.55
2019-04-11T02:34:08.826Z,101588.92
2019-04-11T02:36:43.388Z,101582.84
2019-04-11T02:39:19.734Z,101589.77
2019-04-11T02:41:52.759Z,101584.98
2019-04-11T02:44:41.417Z,101586.29
2019-04-11T02:47:05.680Z,101588.90
2019-04-11T02:49:33.768Z,101587.16
2019-04-11T02:52:07.203Z,101583.69
2019-04-11T02:54:41.031Z,101589.78
2019-04-11T02:57:16.328Z,101585.00
2019-04-11T02:59:51.213Z,101594.56
2019-04-11T03:02:24.329Z,101594.56
2019-04-11T03:04:58.253Z,101586.73
2019-04-11T03:07:31.967Z,101589.34
2019-04-11T03:10:09.321Z,101588.47
2019-04-11T03:12:40.722Z,101582.37
2019-04-11T03:15:28.753Z,101590.22
2019-04-11T03:17:50.678Z,101587.61
2019-04-11T03:20:31.720Z,101588.92
2019-04-11T03:23:04.096Z,101587.17
2019-04-11T03:25:32.987Z,101591.95
2019-04-11T03:28:05.552Z,101591.09
2019-04-11T03:31:01.897Z,101589.79
2019-04-11T03:34:01.734Z,101595.42
2019-04-11T03:36:38.041Z,101594.98
2019-04-11T03:38:46.691Z,101598.47
2019-04-11T03:41:15.855Z,101595.86
2019-04-11T03:43:45.851Z,101599.31
2019-04-11T03:46:25.345Z,101602.80
2019-04-11T03:48:55.732Z,101604.13
2019-04-11T03:51:21.031Z,101598.04
2019-04-11T03:53:53.687Z,101598.90
2019-04-11T03:56:28.521Z,101605.86
2019-04-11T03:59:01.429Z,101608.47
2019-04-11T04:01:34.981Z,101609.77
2019-04-11T04:04:11.122Z,101614.99
2019-04-11T04:06:43.595Z,101612.38
2019-04-11T04:09:17.071Z,101614.98
2019-04-11T04:11:51.334Z,101619.80
2019-04-11T04:14:26.369Z,101620.23
2019-04-11T04:17:04.243Z,101616.75
2019-04-11T04:19:37.690Z,101624.14
2019-04-11T04:22:20.650Z,101629.81
2019-04-11T04:24:55.773Z,101631.98
2019-04-11T04:27:28.129Z,101639.40
2019-04-11T04:30:02.370Z,101634.59
2019-04-11T04:32:36.276Z,101636.34
2019-04-11T04:35:11.508Z,101635.92
2019-04-11T04:37:43.354Z,101640.28
2019-04-11T04:40:34.158Z,101644.16
2019-04-11T04:42:55.928Z,101648.52
2019-04-11T04:45:27.850Z,101648.93
2019-04-11T04:48:05.611Z,101646.70
2019-04-11T04:50:36.678Z,101644.52
2019-04-11T04:53:10.221Z,101647.95
2019-04-11T04:55:45.649Z,101655.75
2019-04-11T04:58:18.048Z,101657.40
2019-04-11T05:00:53.838Z,101652.09
2019-04-11T05:03:26.913Z,101656.34
2019-04-11T05:06:01.219Z,101655.41
2019-04-11T05:08:34.767Z,101657.94
2019-04-11T05:11:07.901Z,101655.65
2019-04-11T05:13:44.482Z,101657.06
2019-04-11T05:16:17.884Z,101654.05
2019-04-11T05:18:50.793Z,101657.31
2019-04-11T05:21:29.620Z,101653.14
2019-04-11T05:24:02.648Z,101653.89
2019-04-11T05:26:35.933Z,101651.59
2019-04-11T05:29:09.027Z,101648.10
2019-04-11T05:31:41.158Z,101651.39
2019-04-11T05:34:14.008Z,101653.53
2019-04-11T05:36:47.252Z,101651.36
2019-04-11T05:39:20.284Z,101652.50
2019-04-11T05:41:54.417Z,101655.88
2019-04-11T05:44:26.287Z,101661.30
2019-04-11T05:47:01.913Z,101660.00
2019-04-11T05:49:37.271Z,101660.84
2019-04-11T05:52:10.534Z,101662.15
2019-04-11T05:54:54.330Z,101658.89
2019-04-11T05:57:33.041Z,101665.27
2019-04-11T06:00:01.296Z,101671.86
2019-04-11T06:02:39.540Z,101670.48
2019-04-11T06:05:23.860Z,101674.27
2019-04-11T06:08:00.454Z,101669.60
2019-04-11T06:10:43.537Z,101674.91
2019-04-11T06:13:16.648Z,101675.34
2019-04-11T06:15:51.384Z,101676.97
2019-04-11T06:18:32.041Z,101674.31
2019-04-11T06:21:07.425Z,101678.63
2019-04-11T06:23:43.960Z,101685.95
2019-04-11T06:26:21.306Z,101689.27
2019-04-11T06:28:56.997Z,101694.09
2019-04-11T06:31:34.633Z,101688.90
2019-04-11T06:34:09.237Z,101690.40
2019-04-11T06:36:43.391Z,101691.04
2019-04-11T06:39:33.566Z,101693.38
2019-04-11T06:42:10.736Z,101696.22
2019-04-11T06:44:43.820Z,101688.89
2019-04-11T06:47:21.253Z,101696.53
2019-04-11T06:49:58.611Z,101690.78
2019-04-11T06:52:36.990Z,101695.92
2019-04-11T06:55:18.281Z,101690.05
2019-04-11T06:58:02.917Z,101692.34
2019-04-11T07:00:39.102Z,101692.53
2019-04-11T07:03:20.638Z,101695.99
2019-04-11T07:05:51.058Z,101696.59
2019-04-11T07:08:27.317Z,101698.44
2019-04-11T07:11:03.275Z,101693.77
2019-04-11T07:13:37.852Z,101696.59
2019-04-11T07:16:11.267Z,101696.11
2019-04-11T07:18:57.051Z,101697.97
2019-04-11T07:21:33.072Z,101704.61
2019-04-11T07:24:25.397Z,101711.34
2019-04-11T07:27:00.946Z,101707.66
2019-04-11T07:29:48.558Z,101705.33
2019-04-11T07:32:20.403Z,101716.78
2019-04-11T07:34:56.638Z,101715.26
2019-04-11T07:37:32.680Z,101722.28
2019-04-11T07:40:15.579Z,101720.45
2019-04-11T07:42:53.151Z,101725.70
2019-04-11T07:45:37.694Z,101726.41
2019-04-11T07:48:27.278Z,101722.70
2019-04-11T07:51:03.250Z,101734.37
2019-04-11T07:53:37.289Z,101732.17
2019-04-11T07:56:09.871Z,101721.80
2019-04-11T07:58:46.507Z,101729.17
2019-04-11T08:01:21.065Z,101733.89
2019-04-11T08:04:12.714Z,101735.66
2019-04-11T08:07:04.360Z,101736.66
2019-04-11T08:09:50.623Z,101734.06
2019-04-11T08:12:21.718Z,101732.98
2019-04-11T08:15:13.349Z,101745.63
2019-04-11T08:17:46.528Z,101744.25
2019-04-11T08:20:37.566Z,101742.23
2019-04-11T08:26:42.247Z,101742.59
2019-04-11T08:29:16.065Z,101740.80
2019-04-11T08:32:07.318Z,101743.20
2019-04-11T08:35:17.692Z,101738.55
2019-04-11T08:37:58.030Z,101741.47
2019-04-11T08:40:33.611Z,101728.30
2019-04-11T08:43:13.131Z,101736.16
2019-04-11T08:46:05.314Z,101733.22
2019-04-11T08:48:57.286Z,101723.91
2019-04-11T08:51:33.574Z,101737.75
2019-04-11T08:54:15.501Z,101736.28
2019-04-11T08:56:59.161Z,101741.19
2019-04-11T08:59:37.867Z,101738.76
2019-04-11T09:02:11.231Z,101731.33
2019-04-11T09:05:08.484Z,101735.89
2019-04-11T09:07:41.650Z,101728.20
2019-04-11T09:10:33.768Z,101727.14
2019-04-11T09:13:13.266Z,101720.08
2019-04-11T09:16:10.342Z,101718.87
2019-04-11T09:18:44.085Z,101723.22
2019-04-11T09:21:34.165Z,101724.20
2019-04-11T09:24:08.319Z,101724.05
2019-04-11T09:26:52.241Z,101718.47
2019-04-11T09:29:40.125Z,101724.91
2019-04-11T09:32:14.022Z,101723.71
2019-04-11T09:35:04.183Z,101724.52
2019-04-11T09:37:37.871Z,101725.65
2019-04-11T09:40:28.329Z,101729.48
2019-04-11T09:43:07.164Z,101719.30
2019-04-11T09:45:59.756Z,101722.63
2019-04-11T09:48:50.405Z,101721.77
2019-04-11T09:51:30.298Z,101727.85
2019-04-11T09:54:10.126Z,101720.46
2019-04-11T09:57:04.360Z,101730.58
2019-04-11T09:59:56.366Z,101729.13
2019-04-11T10:02:41.941Z,101732.17
2019-04-11T10:05:16.555Z,101735.30
2019-04-11T10:07:50.644Z,101735.86
2019-04-11T10:10:29.150Z,101739.09
2019-04-11T10:13:16.313Z,101734.84
2019-04-11T10:15:53.813Z,101733.52
2019-04-11T10:18:37.290Z,101737.12
2019-04-11T10:21:06.778Z,101738.30
2019-04-11T10:23:58.870Z,101733.86
2019-04-11T10:26:34.183Z,101734.33
2019-04-11T10:29:27.488Z,101735.39
2019-04-11T10:32:01.163Z,101740.12
2019-04-11T10:34:38.577Z,101738.08
2019-04-11T10:37:12.003Z,101735.92
2019-04-11T10:39:51.328Z,101735.30
2019-04-11T10:42:24.846Z,101743.98
2019-04-11T10:45:08.521Z,101742.16
2019-04-11T10:47:41.335Z,101737.34
2019-04-11T10:50:17.637Z,101745.71
2019-04-11T10:52:52.995Z,101740.00
2019-04-11T10:55:27.746Z,101742.83
2019-04-11T10:58:08.818Z,101739.98
2019-04-11T11:00:49.761Z,101738.33
2019-04-11T11:03:24.401Z,101744.92
2019-04-11T11:05:59.652Z,101744.45
2019-04-11T11:08:39.685Z,101743.95
2019-04-11T11:11:15.902Z,101739.78
2019-04-11T11:13:50.091Z,101742.20
2019-04-11T11:16:24.779Z,101744.30
2019-04-11T11:19:31.186Z,101736.30
2019-04-11T11:21:37.069Z,101740.50
2019-04-11T11:24:28.151Z,101742.72
2019-04-11T11:27:03.997Z,101738.65
2019-04-11T11:29:37.127Z,101734.59
2019-04-11T11:32:11.320Z,101737.28
2019-04-11T11:34:52.957Z,101746.19
2019-04-11T11:37:35.946Z,101748.70
2019-04-11T11:40:14.675Z,101745.72
2019-04-11T11:42:48.426Z,101751.61
2019-04-11T11:45:33.211Z,101752.30
2019-04-11T11:48:12.826Z,101750.99
2019-04-11T11:50:40.525Z,101752.89
2019-04-11T11:53:18.487Z,101755.68
2019-04-11T11:55:51.657Z,101761.30
2019-04-11T11:58:25.783Z,101759.59
2019-04-11T12:01:03.673Z,101759.39
2019-04-11T12:03:46.994Z,101761.19
2019-04-11T12:06:22.262Z,101753.02
2019-04-11T12:08:56.082Z,101760.50
2019-04-11T12:11:28.400Z,101759.73
2019-04-11T12:14:09.704Z,101759.25
2019-04-11T12:16:42.430Z,101756.79
2019-04-11T12:19:21.712Z,101759.39
2019-04-11T12:21:55.970Z,101763.78
2019-04-11T12:24:34.750Z,101764.52
2019-04-11T12:27:13.220Z,101751.89
2019-04-11T12:29:50.517Z,101759.09
2019-04-11T12:32:28.457Z,101752.83
2019-04-11T12:35:08.234Z,101755.35
2019-04-11T12:37:51.826Z,101754.55
2019-04-11T12:40:42.621Z,101753.89
2019-04-11T12:43:15.643Z,101763.09
2019-04-11T12:45:54.180Z,101756.81
2019-04-11T12:48:28.671Z,101753.52
2019-04-11T12:51:19.151Z,101752.84
2019-04-11T12:53:50.810Z,101759.13
2019-04-11T12:56:26.902Z,101739.96
2019-04-11T12:58:59.848Z,101754.09
2019-04-11T13:01:34.447Z,101748.20
2019-04-11T13:04:14.867Z,101743.20
2019-04-11T13:06:49.411Z,101749.31
2019-04-11T13:09:23.871Z,101751.04
2019-04-11T13:11:57.149Z,101745.48
2019-04-11T13:14:32.771Z,101744.34
2019-04-11T13:17:22.362Z,101742.49
2019-04-11T13:20:13.231Z,101749.44
2019-04-11T13:22:44.960Z,101745.48
2019-04-11T13:25:35.613Z,101744.00
2019-04-11T13:28:08.895Z,101749.41
2019-04-11T13:30:40.306Z,101747.25
2019-04-11T13:33:13.653Z,101744.19
2019-04-11T13:36:04.323Z,101743.20
2019-04-11T13:38:38.331Z,101751.50
2019-04-11T13:41:29.303Z,101750.58
2019-04-11T13:44:05.504Z,101750.06
2019-04-11T13:46:38.797Z,101754.34
2019-04-11T13:49:17.954Z,101745.33
2019-04-11T13:51:51.267Z,101749.47
2019-04-11T13:54:40.717Z,101748.66
2019-04-11T13:57:12.234Z,101742.41
2019-04-11T14:00:02.770Z,101738.41
2019-04-11T14:02:38.186Z,101743.41
2019-04-11T14:05:13.914Z,101746.64
2019-04-11T14:07:49.438Z,101744.17
2019-04-11T14:10:23.297Z,101739.95
2019-04-11T14:12:56.967Z,101748.30
2019-04-11T14:15:31.128Z,101747.14
2019-04-11T14:18:21.964Z,101744.59
2019-04-11T14:20:59.076Z,101750.46
2019-04-11T14:23:49.166Z,101745.28
2019-04-11T14:26:32.546Z,101735.55
2019-04-11T14:29:06.710Z,101742.72
2019-04-11T14:31:47.947Z,101737.95
2019-04-11T14:34:23.537Z,101742.56
2019-04-11T14:37:00.385Z,101740.90
2019-04-11T14:39:42.966Z,101731.84
2019-04-11T14:42:19.900Z,101727.70
2019-04-11T14:44:55.393Z,101739.14
2019-04-11T14:47:39.179Z,101731.97
2019-04-11T14:50:13.997Z,101732.95
2019-04-11T14:53:01.285Z,101733.17
2019-04-11T14:55:36.711Z,101735.30
2019-04-11T14:58:25.479Z,101729.14
2019-04-11T15:00:57.244Z,101737.01
2019-04-11T15:03:31.404Z,101734.70
2019-04-11T15:06:04.761Z,101732.95
2019-04-11T15:08:54.161Z,101728.63
2019-04-11T15:11:47.132Z,101733.50
2019-04-11T15:14:30.483Z,101735.27
2019-04-11T15:17:15.033Z,101731.00
2019-04-11T15:19:56.774Z,101743.05
2019-04-11T15:22:52.199Z,101736.16
2019-04-11T15:25:27.096Z,101741.34
2019-04-11T15:28:19.152Z,101745.08
2019-04-11T15:31:00.850Z,101746.80
2019-04-11T15:33:48.423Z,101743.13
2019-04-11T15:36:28.638Z,101740.70
2019-04-11T15:39:18.959Z,101742.15
2019-04-11T15:41:59.253Z,101745.42
2019-04-11T15:44:49.265Z,101743.98
2019-04-11T15:47:27.684Z,101743.13
2019-04-11T15:50:03.463Z,101753.41
2019-04-11T15:52:37.965Z,101749.95
2019-04-11T15:55:13.113Z,101756.11
2019-04-11T15:57:49.444Z,101752.53
2019-04-11T16:00:30.550Z,101748.77
2019-04-11T16:03:07.345Z,101746.66
2019-04-11T16:06:01.588Z,101750.50
2019-04-11T16:08:43.458Z,101754.12
2019-04-11T16:11:39.233Z,101753.27
2019-04-11T16:14:16.128Z,101747.21
2019-04-11T16:16:55.221Z,101754.94
2019-04-11T16:19:48.866Z,101757.70
2019-04-11T16:22:25.455Z,101756.17
2019-04-11T16:25:06.972Z,101761.72
2019-04-11T16:27:57.556Z,101757.15
2019-04-11T16:30:31.004Z,101753.88
2019-04-11T16:33:06.785Z,101760.90
2019-04-11T16:35:57.339Z,101758.78
2019-04-11T16:38:34.399Z,101764.00
2019-04-11T16:41:07.737Z,101769.09
2019-04-11T16:43:43.783Z,101770.50
2019-04-11T16:46:35.416Z,101766.95
2019-04-11T16:49:11.681Z,101771.37
2019-04-11T16:51:48.534Z,101768.61
2019-04-11T16:54:21.212Z,101770.25
2019-04-11T16:57:01.374Z,101777.45
2019-04-11T16:59:35.245Z,101779.33
2019-04-11T17:02:11.189Z,101777.73
2019-04-11T17:04:46.234Z,101775.25
2019-04-11T17:07:39.034Z,101780.16
2019-04-11T17:10:17.576Z,101778.52
2019-04-11T17:12:56.869Z,101780.75
2019-04-11T17:15:30.633Z,101779.85
2019-04-11T17:18:03.163Z,101783.05
2019-04-11T17:20:39.840Z,101781.95
2019-04-11T17:23:12.774Z,101780.58
2019-04-11T17:25:48.264Z,101782.45
2019-04-11T17:28:22.625Z,101786.36
2019-04-11T17:30:56.967Z,101796.48
2019-04-11T17:33:30.995Z,101795.83
2019-04-11T17:36:05.072Z,101799.34
2019-04-11T17:38:37.737Z,101804.66
2019-04-11T17:41:11.987Z,101804.72
2019-04-11T17:43:46.726Z,101809.09
2019-04-11T17:46:26.727Z,101818.33
2019-04-11T17:48:59.278Z,101815.73
2019-04-11T17:51:37.550Z,101824.94
2019-04-11T17:54:13.526Z,101824.94
2019-04-11T17:56:47.569Z,101823.61
2019-04-11T17:59:23.165Z,101828.23
2019-04-11T18:01:57.230Z,101834.47
2019-04-11T18:04:31.937Z,101836.66
2019-04-11T18:07:04.957Z,101838.52
2019-04-11T18:09:39.271Z,101846.85
2019-04-11T18:12:13.167Z,101849.45
2019-04-11T18:14:46.431Z,101852.13
2019-04-11T18:17:20.097Z,101850.97
2019-04-11T18:20:04.547Z,101857.16
2019-04-11T18:22:39.200Z,101854.94
2019-04-11T18:25:12.399Z,101863.76
2019-04-11T18:27:47.354Z,101861.24
2019-04-11T18:30:23.303Z,101855.55
2019-04-11T18:32:57.648Z,101865.62
2019-04-11T18:35:37.217Z,101868.30
2019-04-11T18:38:10.326Z,101862.15
2019-04-11T18:40:42.379Z,101867.92
2019-04-11T18:43:16.239Z,101868.79
2019-04-11T18:45:49.718Z,101867.43
2019-04-11T18:48:27.089Z,101870.90
2019-04-11T18:51:01.734Z,101876.18
2019-04-11T18:53:38.299Z,101875.84
2019-04-11T18:56:14.515Z,101877.16
2019-04-11T18:58:48.892Z,101872.79
2019-04-11T19:01:25.243Z,101875.47
2019-04-11T19:03:57.747Z,101877.23
2019-04-11T19:06:32.600Z,101879.39
2019-04-11T19:09:05.866Z,101879.91
2019-04-11T19:11:39.054Z,101884.30
2019-04-11T19:14:11.426Z,101875.13
2019-04-11T19:16:43.804Z,101876.95
2019-04-11T19:19:18.560Z,101879.66
2019-04-11T19:21:54.096Z,101884.03
2019-04-11T19:24:35.338Z,101878.68
2019-04-11T19:27:09.187Z,101883.12
2019-04-11T19:29:41.976Z,101880.08
2019-04-11T19:32:18.075Z,101883.25
2019-04-11T19:34:51.414Z,101885.47
2019-04-11T19:37:23.966Z,101884.15
2019-04-11T19:39:57.482Z,101881.48
2019-04-11T19:42:30.482Z,101878.50
2019-04-11T19:45:08.558Z,101887.28
2019-04-11T19:47:41.766Z,101884.64
2019-04-11T19:50:16.517Z,101890.86
2019-04-11T19:52:50.232Z,101890.90
2019-04-11T19:55:30.160Z,101890.06
2019-04-11T19:58:02.583Z,101879.52
2019-04-11T20:00:36.227Z,101886.52
2019-04-11T20:03:10.349Z,101884.37
2019-04-11T20:05:46.012Z,101887.39
2019-04-11T20:08:20.147Z,101888.83
2019-04-11T20:10:55.293Z,101884.91
2019-04-11T20:13:31.950Z,101881.36
2019-04-11T20:16:03.918Z,101881.85
2019-04-11T20:18:37.724Z,101889.34
2019-04-11T20:21:10.394Z,101880.56
2019-04-11T20:23:44.683Z,101886.30
2019-04-11T20:26:20.102Z,101888.52
2019-04-11T20:28:56.104Z,101886.30
2019-04-11T20:31:28.597Z,101888.45
2019-04-11T20:34:01.695Z,101891.98
2019-04-11T20:36:36.218Z,101890.70
2019-04-11T20:39:15.303Z,101888.10
2019-04-11T20:41:46.683Z,101897.78
2019-04-11T20:44:27.221Z,101889.05
2019-04-11T20:47:00.392Z,101894.32
2019-04-11T20:49:35.457Z,101893.87
2019-04-11T20:52:18.398Z,101894.73
2019-04-11T20:54:51.944Z,101893.53
2019-04-11T20:57:26.317Z,101891.37
2019-04-11T20:59:58.523Z,101894.46
2019-04-11T21:02:33.961Z,101900.19
2019-04-11T21:05:07.001Z,101895.85
2019-04-11T21:07:40.645Z,101890.58
2019-04-11T21:10:12.694Z,101896.75
2019-04-11T21:12:46.850Z,101894.12
2019-04-11T21:15:19.912Z,101897.59
2019-04-11T21:17:53.637Z,101897.59
2019-04-11T21:20:25.191Z,101899.42
2019-04-11T21:22:58.223Z,101899.81
2019-04-11T21:25:29.939Z,101896.86
2019-04-11T21:28:04.001Z,101897.83
2019-04-11T21:30:35.863Z,101895.64
2019-04-11T21:33:11.787Z,101898.25
2019-04-11T21:35:43.871Z,101901.30
2019-04-11T21:38:15.613Z,101895.20
2019-04-11T21:40:48.888Z,101897.83
2019-04-11T21:43:23.312Z,101894.36
2019-04-11T21:45:57.399Z,101895.23
2019-04-11T21:48:35.594Z,101896.55
2019-04-11T21:51:05.979Z,101893.91
2019-04-11T21:53:37.887Z,101896.62
2019-04-11T21:56:09.763Z,101892.59
2019-04-11T21:58:42.749Z,101897.90
2019-04-11T22:01:17.867Z,101899.25
2019-04-11T22:03:55.778Z,101901.54
2019-04-11T22:06:30.469Z,101901.54
2019-04-11T22:09:12.118Z,101898.00
2019-04-11T22:11:45.176Z,101899.77
2019-04-11T22:14:20.546Z,101901.13
2019-04-11T22:16:56.062Z,101900.67
2019-04-11T22:19:29.366Z,101903.73
2019-04-11T22:22:02.340Z,101907.33
2019-04-11T22:24:35.020Z,101896.37
2019-04-11T22:27:08.005Z,101905.59
2019-04-11T22:29:41.977Z,101909.14
2019-04-11T22:32:18.069Z,101904.34
2019-04-11T22:34:51.886Z,101901.36
2019-04-11T22:37:27.714Z,101903.52
2019-04-11T22:40:02.774Z,101907.95
2019-04-11T22:42:34.884Z,101901.36
2019-04-11T22:45:09.138Z,101907.08
2019-04-11T22:47:40.806Z,101909.72
2019-04-11T22:50:16.086Z,101917.14
2019-04-11T22:52:48.957Z,101915.37
2019-04-11T22:55:21.933Z,101914.54
2019-04-11T22:57:53.758Z,101912.80
2019-04-11T23:00:25.697Z,101910.58
2019-04-11T23:03:04.876Z,101919.39
2019-04-11T23:05:37.402Z,101917.20
2019-04-11T23:08:09.018Z,101916.75
2019-04-11T23:10:46.850Z,101916.75
2019-04-11T23:13:22.980Z,101908.88
2019-04-11T23:15:55.981Z,101910.68
2019-04-11T23:18:28.953Z,101910.61
2019-04-11T23:21:02.002Z,101907.14
2019-04-11T23:23:33.743Z,101908.95
2019-04-11T23:26:07.669Z,101915.09
2019-04-11T23:28:40.317Z,101918.63
2019-04-11T23:31:13.323Z,101914.67
2019-04-11T23:33:46.308Z,101910.74
2019-04-11T23:36:21.166Z,101916.02
2019-04-11T23:38:53.843Z,101912.48
2019-04-11T23:41:26.813Z,101914.28
2019-04-11T23:43:59.769Z,101907.76
2019-04-11T23:46:32.795Z,101907.24
2019-04-11T23:49:05.763Z,101904.54
2019-04-11T23:51:38.762Z,101909.02
2019-04-11T23:54:22.580Z,101898.47
2019-04-11T23:56:47.828Z,101902.84
2019-04-11T23:59:20.467Z,101900.20
